»·PEaware :: N145VJ KGJT-KAPA

N145VJ :: KGJT-KAPA

FLIGHT INFORMATION

Flight Status: Arrived
Operator: Privately registered:
United States
More flights under this callsign
Pilot: Adam K. (2650)
Aircraft: Unknown
(VIPJ)
More flights by this aircraft type
Origin: KGJT Walker
United States
Destination: KAPA Centennial
United States
More flights between these airports :: More routes between these airports
Route: +JNC HBU CABOB ZOMBZ ZOMBZ1
File this flight plan on PilotEdge
Remarks:
Altitude:
(Current/Filed)
21,000ft
Speed:
(Current/Filed)
450kts
Departed: 01-Jun-17 04:12 PM
Arrived: 01-Jun-17 04:53 PM
Distance/Time
Traveled:
173nm/0:41
Distance/Time
To Go:
Arrived

Flight Plot

Page will automatically refresh every two minutes.

Flight plan parsing failed; only flown route is shown


Map Options




Map Legend


Flown Route
Filed Route
Departure Airport
Arrival Airport
Navaid (VOR, NDB)
Fix

Horizontal Profiles

Position Reports

Time Latitude Longitude Heading Altitude Ground
Speed
01-Jun-17 15:54 39.119092 -108.521322 127 4861ft 0kts
01-Jun-17 15:55 39.119092 -108.521322 127 4861ft 0kts
01-Jun-17 15:56 39.119092 -108.521322 127 4861ft 0kts
01-Jun-17 15:57 39.119092 -108.521322 127 4861ft 0kts
01-Jun-17 15:58 39.119092 -108.521322 127 4861ft 0kts
01-Jun-17 15:59 39.119092 -108.521322 127 4861ft 0kts
01-Jun-17 16:00 39.119092 -108.521322 127 4861ft 0kts
01-Jun-17 16:01 39.119092 -108.521322 127 4861ft 0kts
01-Jun-17 16:02 39.119092 -108.521322 127 4861ft 0kts
01-Jun-17 16:03 39.119092 -108.521322 127 4861ft 0kts
01-Jun-17 16:04 39.119092 -108.521322 127 4861ft 0kts
01-Jun-17 16:05 39.119092 -108.521322 127 4861ft 0kts
01-Jun-17 16:06 39.119092 -108.521322 127 4861ft 0kts
01-Jun-17 16:07 39.119092 -108.521322 127 4861ft 0kts
01-Jun-17 16:08 39.119092 -108.521322 127 4861ft 0kts
01-Jun-17 16:09 39.119053 -108.520006 4 4861ft 15kts
01-Jun-17 16:10 39.118221 -108.516313 126 4861ft 0kts
01-Jun-17 16:11 39.118221 -108.516313 126 4861ft 0kts
01-Jun-17 16:12 39.118386 -108.514820 24 4861ft 15kts
01-Jun-17 16:13 39.119201 -108.515615 304 4861ft 35kts
01-Jun-17 16:14 39.135171 -108.546997 303 6165ft 112kts
01-Jun-17 16:15 39.138205 -108.592767 224 8006ft 203kts
01-Jun-17 16:16 39.104148 -108.670267 244 10158ft 299kts
01-Jun-17 16:17 39.056085 -108.764120 205 12418ft 356kts
01-Jun-17 16:18 38.975257 -108.716479 110 14528ft 385kts
01-Jun-17 16:19 38.940457 -108.589097 112 16771ft 390kts
01-Jun-17 16:20 38.901581 -108.462944 112 18999ft 391kts
01-Jun-17 16:21 38.863684 -108.340112 112 20972ft 395kts
01-Jun-17 16:22 38.821375 -108.203606 112 21032ft 441kts
01-Jun-17 16:23 38.776407 -108.059245 112 21027ft 464kts
01-Jun-17 16:24 38.728913 -107.907585 112 21041ft 475kts
01-Jun-17 16:25 38.680140 -107.752694 112 21084ft 479kts
01-Jun-17 16:26 38.630886 -107.597150 112 21086ft 482kts
01-Jun-17 16:27 38.590216 -107.469360 112 21097ft 482kts
01-Jun-17 16:28 38.532858 -107.290115 113 21171ft 482kts
01-Jun-17 16:29 38.482886 -107.134872 113 21186ft 482kts
01-Jun-17 16:30 38.464366 -106.999181 76 21120ft 487kts
01-Jun-17 16:31 38.527780 -106.818200 67 21186ft 487kts
01-Jun-17 16:32 38.580638 -106.662431 67 21187ft 488kts
01-Jun-17 16:33 38.633675 -106.505288 67 21190ft 489kts
01-Jun-17 16:34 38.685734 -106.350212 67 21196ft 489kts
01-Jun-17 16:35 38.722179 -106.241147 67 21188ft 489kts
01-Jun-17 16:36 38.765508 -106.110938 67 21186ft 489kts
01-Jun-17 16:37 38.820011 -105.946304 67 21195ft 489kts
01-Jun-17 16:38 38.859561 -105.826261 68 19870ft 449kts
01-Jun-17 16:39 38.886306 -105.744782 68 18654ft 427kts
01-Jun-17 16:40 38.923164 -105.628549 73 17191ft 397kts
01-Jun-17 16:41 38.942352 -105.505681 64 17116ft 361kts
01-Jun-17 16:42 39.011273 -105.425439 45 17150ft 341kts
01-Jun-17 16:43 39.078566 -105.337917 47 15559ft 364kts
01-Jun-17 16:44 39.145589 -105.249707 47 15061ft 345kts
01-Jun-17 16:45 39.189444 -105.152770 90 15091ft 321kts
01-Jun-17 16:46 39.187159 -105.034041 103 13032ft 359kts
01-Jun-17 16:47 39.177974 -104.916628 70 12014ft 350kts
01-Jun-17 16:48 39.241177 -104.834296 8 10325ft 378kts
01-Jun-17 16:49 39.332781 -104.862623 314 8519ft 372kts
01-Jun-17 16:50 39.414176 -104.880256 20 7535ft 313kts
01-Jun-17 16:51 39.475935 -104.851880 0 7054ft 157kts
01-Jun-17 16:52 39.509053 -104.850325 1 6839ft 122kts
01-Jun-17 16:53 39.539072 -104.851126 355 6415ft 128kts
01-Jun-17 16:54 39.569136 -104.853284 354 5886ft 73kts
01-Jun-17 16:55 39.574267 -104.851868 86 5886ft 0kts

Navigation Log

Ident Type
Flight plan parsing failed, navigation log unavailable